sensor_id;sensor_type;location;lat;lon;timestamp;temperature;humidity
64209;DHT22;50527;52.414;13.226;2024-03-17T00:01:04;5.70;84.40
64209;DHT22;50527;52.414;13.226;2024-03-17T00:03:30;5.70;85.10
64209;DHT22;50527;52.414;13.226;2024-03-17T00:06:00;5.60;84.80
64209;DHT22;50527;52.414;13.226;2024-03-17T00:08:26;5.60;85.50
64209;DHT22;50527;52.414;13.226;2024-03-17T00:10:54;5.60;85.00
64209;DHT22;50527;52.414;13.226;2024-03-17T00:13:20;5.50;84.90
64209;DHT22;50527;52.414;13.226;2024-03-17T00:15:47;5.60;84.90
64209;DHT22;50527;52.414;13.226;2024-03-17T00:18:13;5.60;84.90
64209;DHT22;50527;52.414;13.226;2024-03-17T00:20:38;5.50;84.00
64209;DHT22;50527;52.414;13.226;2024-03-17T00:23:04;5.50;85.00
64209;DHT22;50527;52.414;13.226;2024-03-17T00:25:32;5.50;85.10
64209;DHT22;50527;52.414;13.226;2024-03-17T00:27:58;5.50;84.80
64209;DHT22;50527;52.414;13.226;2024-03-17T00:30:23;5.40;85.40
64209;DHT22;50527;52.414;13.226;2024-03-17T00:32:49;5.40;85.70
64209;DHT22;50527;52.414;13.226;2024-03-17T00:35:14;5.30;84.90
64209;DHT22;50527;52.414;13.226;2024-03-17T00:37:49;5.30;86.50
64209;DHT22;50527;52.414;13.226;2024-03-17T00:40:18;5.30;86.50
64209;DHT22;50527;52.414;13.226;2024-03-17T00:42:43;5.20;85.50
64209;DHT22;50527;52.414;13.226;2024-03-17T00:45:10;5.30;86.40
64209;DHT22;50527;52.414;13.226;2024-03-17T00:47:37;5.20;85.90
64209;DHT22;50527;52.414;13.226;2024-03-17T00:50:03;5.20;86.40
64209;DHT22;50527;52.414;13.226;2024-03-17T00:52:29;5.20;86.70
64209;DHT22;50527;52.414;13.226;2024-03-17T00:54:55;5.30;86.30
64209;DHT22;50527;52.414;13.226;2024-03-17T00:57:20;5.20;86.60
64209;DHT22;50527;52.414;13.226;2024-03-17T00:59:46;5.20;86.90
64209;DHT22;50527;52.414;13.226;2024-03-17T01:02:12;5.20;86.80
64209;DHT22;50527;52.414;13.226;2024-03-17T01:04:39;5.20;86.50
64209;DHT22;50527;52.414;13.226;2024-03-17T01:07:05;5.20;87.30
64209;DHT22;50527;52.414;13.226;2024-03-17T01:09:31;5.20;86.60
64209;DHT22;50527;52.414;13.226;2024-03-17T01:11:56;5.10;86.30
64209;DHT22;50527;52.414;13.226;2024-03-17T01:14:22;5.00;86.50
64209;DHT22;50527;52.414;13.226;2024-03-17T01:16:47;5.10;87.40
64209;DHT22;50527;52.414;13.226;2024-03-17T01:19:13;5.00;86.90
64209;DHT22;50527;52.414;13.226;2024-03-17T01:21:38;5.00;87.30
64209;DHT22;50527;52.414;13.226;2024-03-17T01:24:04;5.00;88.10
64209;DHT22;50527;52.414;13.226;2024-03-17T01:26:29;4.90;87.60
64209;DHT22;50527;52.414;13.226;2024-03-17T01:28:55;4.90;87.60
64209;DHT22;50527;52.414;13.226;2024-03-17T01:31:20;4.90;87.80
64209;DHT22;50527;52.414;13.226;2024-03-17T01:33:46;4.80;87.50
64209;DHT22;50527;52.414;13.226;2024-03-17T01:36:12;4.90;88.20
64209;DHT22;50527;52.414;13.226;2024-03-17T01:38:38;4.90;87.70
64209;DHT22;50527;52.414;13.226;2024-03-17T01:41:03;4.80;87.50
64209;DHT22;50527;52.414;13.226;2024-03-17T01:43:30;4.80;87.00
64209;DHT22;50527;52.414;13.226;2024-03-17T01:45:56;4.80;87.30
64209;DHT22;50527;52.414;13.226;2024-03-17T01:48:21;4.80;87.70
64209;DHT22;50527;52.414;13.226;2024-03-17T01:50:49;4.80;88.00
64209;DHT22;50527;52.414;13.226;2024-03-17T01:53:16;4.70;87.30
64209;DHT22;50527;52.414;13.226;2024-03-17T01:55:43;4.70;87.50
64209;DHT22;50527;52.414;13.226;2024-03-17T01:58:10;4.70;87.00
64209;DHT22;50527;52.414;13.226;2024-03-17T02:00:38;4.70;87.00
64209;DHT22;50527;52.414;13.226;2024-03-17T02:03:07;4.70;87.40
64209;DHT22;50527;52.414;13.226;2024-03-17T02:05:36;4.70;87.70
64209;DHT22;50527;52.414;13.226;2024-03-17T02:08:06;4.70;87.80
64209;DHT22;50527;52.414;13.226;2024-03-17T02:10:35;4.70;87.90
64209;DHT22;50527;52.414;13.226;2024-03-17T02:13:01;4.60;87.10
64209;DHT22;50527;52.414;13.226;2024-03-17T02:15:28;4.60;87.20
64209;DHT22;50527;52.414;13.226;2024-03-17T02:17:54;4.60;87.90
64209;DHT22;50527;52.414;13.226;2024-03-17T02:20:19;4.50;87.90
64209;DHT22;50527;52.414;13.226;2024-03-17T02:22:45;4.50;87.90
64209;DHT22;50527;52.414;13.226;2024-03-17T02:25:10;4.50;88.40
64209;DHT22;50527;52.414;13.226;2024-03-17T02:27:36;4.40;88.10
64209;DHT22;50527;52.414;13.226;2024-03-17T02:30:02;4.40;88.60
64209;DHT22;50527;52.414;13.226;2024-03-17T02:32:28;4.40;89.40
64209;DHT22;50527;52.414;13.226;2024-03-17T02:34:54;4.40;89.40
64209;DHT22;50527;52.414;13.226;2024-03-17T02:37:20;4.40;89.20
64209;DHT22;50527;52.414;13.226;2024-03-17T02:39:45;4.40;89.20
64209;DHT22;50527;52.414;13.226;2024-03-17T02:42:11;4.30;89.50
64209;DHT22;50527;52.414;13.226;2024-03-17T02:44:38;4.40;90.00
64209;DHT22;50527;52.414;13.226;2024-03-17T02:47:04;4.40;90.00
64209;DHT22;50527;52.414;13.226;2024-03-17T02:49:31;4.30;90.00
64209;DHT22;50527;52.414;13.226;2024-03-17T02:52:05;4.30;90.10
64209;DHT22;50527;52.414;13.226;2024-03-17T02:54:31;4.40;90.30
64209;DHT22;50527;52.414;13.226;2024-03-17T02:56:57;4.40;90.40
64209;DHT22;50527;52.414;13.226;2024-03-17T02:59:23;4.40;90.40
64209;DHT22;50527;52.414;13.226;2024-03-17T03:01:48;4.30;90.60
64209;DHT22;50527;52.414;13.226;2024-03-17T03:04:14;4.30;90.70
64209;DHT22;50527;52.414;13.226;2024-03-17T03:06:41;4.30;90.50
64209;DHT22;50527;52.414;13.226;2024-03-17T03:09:06;4.30;90.80
64209;DHT22;50527;52.414;13.226;2024-03-17T03:11:40;4.20;90.70
64209;DHT22;50527;52.414;13.226;2024-03-17T03:14:08;4.20;91.00
64209;DHT22;50527;52.414;13.226;2024-03-17T03:16:34;4.20;91.20
64209;DHT22;50527;52.414;13.226;2024-03-17T03:18:59;4.20;91.60
64209;DHT22;50527;52.414;13.226;2024-03-17T03:21:25;4.10;91.80
64209;DHT22;50527;52.414;13.226;2024-03-17T03:23:51;4.00;92.30
64209;DHT22;50527;52.414;13.226;2024-03-17T03:26:17;4.10;92.60
64209;DHT22;50527;52.414;13.226;2024-03-17T03:28:43;4.10;92.70
64209;DHT22;50527;52.414;13.226;2024-03-17T03:31:12;4.10;92.60
64209;DHT22;50527;52.414;13.226;2024-03-17T03:33:41;4.10;92.40
64209;DHT22;50527;52.414;13.226;2024-03-17T03:36:10;4.10;92.80
64209;DHT22;50527;52.414;13.226;2024-03-17T03:38:36;4.00;92.90
64209;DHT22;50527;52.414;13.226;2024-03-17T03:41:14;4.00;93.20
64209;DHT22;50527;52.414;13.226;2024-03-17T03:43:39;4.10;93.20
64209;DHT22;50527;52.414;13.226;2024-03-17T03:46:06;4.00;93.20
64209;DHT22;50527;52.414;13.226;2024-03-17T03:48:32;4.00;93.40
64209;DHT22;50527;52.414;13.226;2024-03-17T03:51:02;4.00;93.50
64209;DHT22;50527;52.414;13.226;2024-03-17T03:53:28;4.00;93.40
64209;DHT22;50527;52.414;13.226;2024-03-17T03:55:54;4.10;93.50
64209;DHT22;50527;52.414;13.226;2024-03-17T03:58:20;4.00;93.50
64209;DHT22;50527;52.414;13.226;2024-03-17T04:00:46;4.00;93.30
64209;DHT22;50527;52.414;13.226;2024-03-17T04:03:11;4.00;93.40
64209;DHT22;50527;52.414;13.226;2024-03-17T04:05:37;4.00;93.90
64209;DHT22;50527;52.414;13.226;2024-03-17T04:08:03;3.90;94.00
64209;DHT22;50527;52.414;13.226;2024-03-17T04:10:28;4.00;94.20
64209;DHT22;50527;52.414;13.226;2024-03-17T04:12:54;3.90;94.30
64209;DHT22;50527;52.414;13.226;2024-03-17T04:15:19;3.90;94.80
64209;DHT22;50527;52.414;13.226;2024-03-17T04:17:45;3.90;94.90
64209;DHT22;50527;52.414;13.226;2024-03-17T04:20:11;3.80;94.80
64209;DHT22;50527;52.414;13.226;2024-03-17T04:22:39;3.80;94.90
64209;DHT22;50527;52.414;13.226;2024-03-17T04:25:04;3.80;94.80
64209;DHT22;50527;52.414;13.226;2024-03-17T04:27:30;3.90;95.50
64209;DHT22;50527;52.414;13.226;2024-03-17T04:29:58;3.80;95.50
64209;DHT22;50527;52.414;13.226;2024-03-17T04:32:24;3.90;95.70
64209;DHT22;50527;52.414;13.226;2024-03-17T04:34:50;3.80;95.60
64209;DHT22;50527;52.414;13.226;2024-03-17T04:37:16;3.80;95.80
64209;DHT22;50527;52.414;13.226;2024-03-17T04:39:43;3.80;95.90
64209;DHT22;50527;52.414;13.226;2024-03-17T04:42:13;3.80;95.80
64209;DHT22;50527;52.414;13.226;2024-03-17T04:44:42;3.80;96.00
64209;DHT22;50527;52.414;13.226;2024-03-17T04:47:08;3.80;96.40
64209;DHT22;50527;52.414;13.226;2024-03-17T04:49:37;3.70;96.10
64209;DHT22;50527;52.414;13.226;2024-03-17T04:52:04;3.70;96.60
64209;DHT22;50527;52.414;13.226;2024-03-17T04:54:31;3.70;96.90
64209;DHT22;50527;52.414;13.226;2024-03-17T04:56:56;3.70;96.60
64209;DHT22;50527;52.414;13.226;2024-03-17T04:59:22;3.70;96.40
64209;DHT22;50527;52.414;13.226;2024-03-17T05:01:47;3.70;96.70
64209;DHT22;50527;52.414;13.226;2024-03-17T05:04:14;3.70;96.70
64209;DHT22;50527;52.414;13.226;2024-03-17T05:06:39;3.70;96.80
64209;DHT22;50527;52.414;13.226;2024-03-17T05:09:07;3.70;97.00
64209;DHT22;50527;52.414;13.226;2024-03-17T05:11:33;3.60;97.00
64209;DHT22;50527;52.414;13.226;2024-03-17T05:14:00;3.70;97.00
64209;DHT22;50527;52.414;13.226;2024-03-17T05:16:26;3.70;96.80
64209;DHT22;50527;52.414;13.226;2024-03-17T05:18:54;3.70;96.80
64209;DHT22;50527;52.414;13.226;2024-03-17T05:21:20;3.60;96.90
64209;DHT22;50527;52.414;13.226;2024-03-17T05:23:47;3.60;96.90
64209;DHT22;50527;52.414;13.226;2024-03-17T05:26:14;3.60;97.10
64209;DHT22;50527;52.414;13.226;2024-03-17T05:28:39;3.60;97.40
64209;DHT22;50527;52.414;13.226;2024-03-17T05:31:05;3.60;97.40
64209;DHT22;50527;52.414;13.226;2024-03-17T05:33:30;3.60;97.30
64209;DHT22;50527;52.414;13.226;2024-03-17T05:36:00;3.70;97.40
64209;DHT22;50527;52.414;13.226;2024-03-17T05:38:28;3.70;97.50
64209;DHT22;50527;52.414;13.226;2024-03-17T05:40:54;3.70;97.50
64209;DHT22;50527;52.414;13.226;2024-03-17T05:43:21;3.70;97.30
64209;DHT22;50527;52.414;13.226;2024-03-17T05:45:46;3.70;97.40
64209;DHT22;50527;52.414;13.226;2024-03-17T05:48:12;3.80;97.50
64209;DHT22;50527;52.414;13.226;2024-03-17T05:50:37;3.80;97.30
64209;DHT22;50527;52.414;13.226;2024-03-17T05:53:04;3.90;97.10
64209;DHT22;50527;52.414;13.226;2024-03-17T05:55:30;3.90;96.90
64209;DHT22;50527;52.414;13.226;2024-03-17T05:57:56;3.90;96.90
64209;DHT22;50527;52.414;13.226;2024-03-17T06:00:22;4.00;96.90
64209;DHT22;50527;52.414;13.226;2024-03-17T06:02:47;4.00;96.80
64209;DHT22;50527;52.414;13.226;2024-03-17T06:05:13;4.00;96.80
64209;DHT22;50527;52.414;13.226;2024-03-17T06:07:39;4.00;96.50
64209;DHT22;50527;52.414;13.226;2024-03-17T06:10:06;4.10;96.70
64209;DHT22;50527;52.414;13.226;2024-03-17T06:12:31;4.00;96.70
64209;DHT22;50527;52.414;13.226;2024-03-17T06:15:07;4.10;97.00
64209;DHT22;50527;52.414;13.226;2024-03-17T06:17:33;4.10;96.80
64209;DHT22;50527;52.414;13.226;2024-03-17T06:19:59;4.20;96.80
64209;DHT22;50527;52.414;13.226;2024-03-17T06:22:26;4.30;96.60
64209;DHT22;50527;52.414;13.226;2024-03-17T06:24:52;4.40;96.30
64209;DHT22;50527;52.414;13.226;2024-03-17T06:27:17;4.40;96.40
64209;DHT22;50527;52.414;13.226;2024-03-17T06:29:43;4.50;96.30
64209;DHT22;50527;52.414;13.226;2024-03-17T06:32:11;4.50;95.50
64209;DHT22;50527;52.414;13.226;2024-03-17T06:34:36;4.60;95.90
64209;DHT22;50527;52.414;13.226;2024-03-17T06:37:02;4.70;95.80
64209;DHT22;50527;52.414;13.226;2024-03-17T06:39:28;4.70;95.20
64209;DHT22;50527;52.414;13.226;2024-03-17T06:41:54;4.80;95.00
64209;DHT22;50527;52.414;13.226;2024-03-17T06:44:19;4.90;95.00
64209;DHT22;50527;52.414;13.226;2024-03-17T06:46:45;5.00;94.80
64209;DHT22;50527;52.414;13.226;2024-03-17T06:49:12;5.10;94.30
64209;DHT22;50527;52.414;13.226;2024-03-17T06:51:38;5.20;94.20
64209;DHT22;50527;52.414;13.226;2024-03-17T06:54:03;5.20;93.80
64209;DHT22;50527;52.414;13.226;2024-03-17T06:56:29;5.30;93.50
64209;DHT22;50527;52.414;13.226;2024-03-17T06:58:54;5.50;93.40
64209;DHT22;50527;52.414;13.226;2024-03-17T07:01:20;6.10;91.60
64209;DHT22;50527;52.414;13.226;2024-03-17T07:03:46;6.50;90.60
64209;DHT22;50527;52.414;13.226;2024-03-17T07:06:11;6.60;89.70
64209;DHT22;50527;52.414;13.226;2024-03-17T07:08:37;6.70;88.80
64209;DHT22;50527;52.414;13.226;2024-03-17T07:11:04;6.70;88.60
64209;DHT22;50527;52.414;13.226;2024-03-17T07:13:40;6.60;88.30
64209;DHT22;50527;52.414;13.226;2024-03-17T07:16:07;6.40;88.10
64209;DHT22;50527;52.414;13.226;2024-03-17T07:18:33;6.40;89.30
64209;DHT22;50527;52.414;13.226;2024-03-17T07:20:59;6.40;87.90
64209;DHT22;50527;52.414;13.226;2024-03-17T07:23:25;7.80;87.00
64209;DHT22;50527;52.414;13.226;2024-03-17T07:25:55;11.40;76.80
64209;DHT22;50527;52.414;13.226;2024-03-17T07:28:21;13.10;66.70
64209;DHT22;50527;52.414;13.226;2024-03-17T07:30:48;12.00;65.00
64209;DHT22;50527;52.414;13.226;2024-03-17T07:33:14;11.80;67.10
64209;DHT22;50527;52.414;13.226;2024-03-17T07:35:47;14.30;62.80
64209;DHT22;50527;52.414;13.226;2024-03-17T07:38:13;17.10;58.30
64209;DHT22;50527;52.414;13.226;2024-03-17T07:40:39;19.10;53.20
64209;DHT22;50527;52.414;13.226;2024-03-17T07:43:04;19.40;48.60
64209;DHT22;50527;52.414;13.226;2024-03-17T07:45:30;19.50;48.10
64209;DHT22;50527;52.414;13.226;2024-03-17T07:47:55;19.50;46.80
64209;DHT22;50527;52.414;13.226;2024-03-17T07:50:21;18.80;47.70
64209;DHT22;50527;52.414;13.226;2024-03-17T07:52:46;18.60;48.20
64209;DHT22;50527;52.414;13.226;2024-03-17T07:55:12;19.00;47.50
64209;DHT22;50527;52.414;13.226;2024-03-17T07:57:38;18.80;46.40
64209;DHT22;50527;52.414;13.226;2024-03-17T08:00:04;17.30;49.10
64209;DHT22;50527;52.414;13.226;2024-03-17T08:02:30;17.30;48.70
64209;DHT22;50527;52.414;13.226;2024-03-17T08:04:55;17.00;49.30
64209;DHT22;50527;52.414;13.226;2024-03-17T08:07:21;16.70;50.60
64209;DHT22;50527;52.414;13.226;2024-03-17T08:09:46;15.40;52.00
64209;DHT22;50527;52.414;13.226;2024-03-17T08:12:12;14.50;53.80
64209;DHT22;50527;52.414;13.226;2024-03-17T08:14:37;14.10;54.80
64209;DHT22;50527;52.414;13.226;2024-03-17T08:17:03;14.20;55.30
64209;DHT22;50527;52.414;13.226;2024-03-17T08:19:28;14.00;56.40
64209;DHT22;50527;52.414;13.226;2024-03-17T08:21:54;13.70;55.30
64209;DHT22;50527;52.414;13.226;2024-03-17T08:24:19;13.50;56.50
64209;DHT22;50527;52.414;13.226;2024-03-17T08:26:44;13.30;57.00
64209;DHT22;50527;52.414;13.226;2024-03-17T08:29:11;12.90;56.90
64209;DHT22;50527;52.414;13.226;2024-03-17T08:31:36;12.60;56.90
64209;DHT22;50527;52.414;13.226;2024-03-17T08:34:02;11.10;60.40
64209;DHT22;50527;52.414;13.226;2024-03-17T08:36:27;11.10;62.60
64209;DHT22;50527;52.414;13.226;2024-03-17T08:38:54;12.60;61.30
64209;DHT22;50527;52.414;13.226;2024-03-17T08:41:20;14.20;58.10
64209;DHT22;50527;52.414;13.226;2024-03-17T08:43:45;15.00;55.00
64209;DHT22;50527;52.414;13.226;2024-03-17T08:46:11;13.40;54.30
64209;DHT22;50527;52.414;13.226;2024-03-17T08:48:40;13.90;55.00
64209;DHT22;50527;52.414;13.226;2024-03-17T08:51:07;15.10;55.60
64209;DHT22;50527;52.414;13.226;2024-03-17T08:53:33;14.30;54.70
64209;DHT22;50527;52.414;13.226;2024-03-17T08:55:59;12.90;56.00
64209;DHT22;50527;52.414;13.226;2024-03-17T08:58:26;11.60;58.40
64209;DHT22;50527;52.414;13.226;2024-03-17T09:00:51;11.60;58.90
64209;DHT22;50527;52.414;13.226;2024-03-17T09:03:17;12.00;58.30
64209;DHT22;50527;52.414;13.226;2024-03-17T09:05:45;11.50;57.50
64209;DHT22;50527;52.414;13.226;2024-03-17T09:08:17;11.40;58.30
64209;DHT22;50527;52.414;13.226;2024-03-17T09:10:45;11.60;59.50
64209;DHT22;50527;52.414;13.226;2024-03-17T09:13:18;12.90;57.80
64209;DHT22;50527;52.414;13.226;2024-03-17T09:16:00;14.70;54.00
64209;DHT22;50527;52.414;13.226;2024-03-17T09:18:30;17.40;50.20
64209;DHT22;50527;52.414;13.226;2024-03-17T09:21:00;18.20;47.00
64209;DHT22;50527;52.414;13.226;2024-03-17T09:23:26;16.60;46.70
64209;DHT22;50527;52.414;13.226;2024-03-17T09:28:21;12.40;52.20
64209;DHT22;50527;52.414;13.226;2024-03-17T09:30:47;11.00;55.60
64209;DHT22;50527;52.414;13.226;2024-03-17T09:33:13;10.20;59.80
64209;DHT22;50527;52.414;13.226;2024-03-17T09:35:38;10.50;61.10
64209;DHT22;50527;52.414;13.226;2024-03-17T09:38:04;12.00;59.30
64209;DHT22;50527;52.414;13.226;2024-03-17T09:40:30;14.20;55.00
64209;DHT22;50527;52.414;13.226;2024-03-17T09:42:56;15.50;50.10
64209;DHT22;50527;52.414;13.226;2024-03-17T09:45:23;14.80;50.80
64209;DHT22;50527;52.414;13.226;2024-03-17T09:47:49;14.40;51.30
64209;DHT22;50527;52.414;13.226;2024-03-17T09:50:15;13.10;53.20
64209;DHT22;50527;52.414;13.226;2024-03-17T09:52:42;11.20;55.70
64209;DHT22;50527;52.414;13.226;2024-03-17T09:55:09;10.40;58.40
64209;DHT22;50527;52.414;13.226;2024-03-17T09:57:39;10.10;60.10
64209;DHT22;50527;52.414;13.226;2024-03-17T10:00:10;10.20;61.50
64209;DHT22;50527;52.414;13.226;2024-03-17T10:02:42;12.10;58.80
64209;DHT22;50527;52.414;13.226;2024-03-17T10:05:21;13.50;53.20
64209;DHT22;50527;52.414;13.226;2024-03-17T10:07:47;13.90;52.90
64209;DHT22;50527;52.414;13.226;2024-03-17T10:10:14;13.70;53.60
64209;DHT22;50527;52.414;13.226;2024-03-17T10:12:41;13.30;53.50
64209;DHT22;50527;52.414;13.226;2024-03-17T10:15:10;12.70;54.10
64209;DHT22;50527;52.414;13.226;2024-03-17T10:17:37;12.20;56.30
64209;DHT22;50527;52.414;13.226;2024-03-17T10:20:20;11.70;57.00
64209;DHT22;50527;52.414;13.226;2024-03-17T10:23:04;11.40;56.90
64209;DHT22;50527;52.414;13.226;2024-03-17T10:25:34;11.10;57.60
64209;DHT22;50527;52.414;13.226;2024-03-17T10:28:10;10.70;57.60
64209;DHT22;50527;52.414;13.226;2024-03-17T10:30:36;10.40;59.50
64209;DHT22;50527;52.414;13.226;2024-03-17T10:33:02;10.20;59.60
64209;DHT22;50527;52.414;13.226;2024-03-17T10:35:33;10.20;59.40
64209;DHT22;50527;52.414;13.226;2024-03-17T10:38:03;10.20;60.40
64209;DHT22;50527;52.414;13.226;2024-03-17T10:40:30;10.40;60.70
64209;DHT22;50527;52.414;13.226;2024-03-17T10:42:57;10.70;58.40
64209;DHT22;50527;52.414;13.226;2024-03-17T10:45:25;11.00;59.80
64209;DHT22;50527;52.414;13.226;2024-03-17T10:47:52;11.10;57.90
64209;DHT22;50527;52.414;13.226;2024-03-17T10:50:22;11.40;56.10
64209;DHT22;50527;52.414;13.226;2024-03-17T10:52:50;11.80;56.50
64209;DHT22;50527;52.414;13.226;2024-03-17T10:55:24;12.00;55.40
64209;DHT22;50527;52.414;13.226;2024-03-17T10:57:51;11.90;56.10
64209;DHT22;50527;52.414;13.226;2024-03-17T11:00:18;11.80;55.10
64209;DHT22;50527;52.414;13.226;2024-03-17T11:02:45;11.70;56.90
64209;DHT22;50527;52.414;13.226;2024-03-17T11:05:28;11.40;56.20
64209;DHT22;50527;52.414;13.226;2024-03-17T11:07:59;11.60;57.30
64209;DHT22;50527;52.414;13.226;2024-03-17T11:10:30;11.60;57.80
64209;DHT22;50527;52.414;13.226;2024-03-17T11:12:57;11.80;55.60
64209;DHT22;50527;52.414;13.226;2024-03-17T11:17:53;11.30;54.40
64209;DHT22;50527;52.414;13.226;2024-03-17T11:22:54;11.50;56.90
64209;DHT22;50527;52.414;13.226;2024-03-17T11:28:09;11.20;57.50
64209;DHT22;50527;52.414;13.226;2024-03-17T11:30:49;10.80;57.90
64209;DHT22;50527;52.414;13.226;2024-03-17T11:47:04;10.20;58.50
64209;DHT22;50527;52.414;13.226;2024-03-17T11:49:34;10.10;57.70
64209;DHT22;50527;52.414;13.226;2024-03-17T11:52:04;9.90;60.10
64209;DHT22;50527;52.414;13.226;2024-03-17T11:54:32;10.10;59.20
64209;DHT22;50527;52.414;13.226;2024-03-17T11:57:03;10.10;58.30
64209;DHT22;50527;52.414;13.226;2024-03-17T11:59:29;9.90;56.70
64209;DHT22;50527;52.414;13.226;2024-03-17T12:01:55;9.80;59.80
64209;DHT22;50527;52.414;13.226;2024-03-17T12:04:22;9.70;59.70
64209;DHT22;50527;52.414;13.226;2024-03-17T12:06:49;9.80;59.30
64209;DHT22;50527;52.414;13.226;2024-03-17T12:11:57;9.60;60.00
64209;DHT22;50527;52.414;13.226;2024-03-17T12:14:23;9.60;60.40
64209;DHT22;50527;52.414;13.226;2024-03-17T12:16:55;9.60;60.10
64209;DHT22;50527;52.414;13.226;2024-03-17T12:19:21;9.60;59.80
64209;DHT22;50527;52.414;13.226;2024-03-17T12:21:53;9.70;59.70
64209;DHT22;50527;52.414;13.226;2024-03-17T12:24:20;9.70;58.20
64209;DHT22;50527;52.414;13.226;2024-03-17T12:26:47;9.90;59.20
64209;DHT22;50527;52.414;13.226;2024-03-17T12:29:33;9.90;59.70
64209;DHT22;50527;52.414;13.226;2024-03-17T12:32:02;10.00;59.50
64209;DHT22;50527;52.414;13.226;2024-03-17T12:34:30;10.30;59.70
64209;DHT22;50527;52.414;13.226;2024-03-17T12:36:56;10.50;57.20
64209;DHT22;50527;52.414;13.226;2024-03-17T12:39:25;10.80;57.30
64209;DHT22;50527;52.414;13.226;2024-03-17T12:42:10;11.10;57.10
64209;DHT22;50527;52.414;13.226;2024-03-17T12:44:37;11.10;55.00
64209;DHT22;50527;52.414;13.226;2024-03-17T12:47:29;10.90;54.40
64209;DHT22;50527;52.414;13.226;2024-03-17T12:49:58;10.90;57.10
64209;DHT22;50527;52.414;13.226;2024-03-17T12:52:28;10.80;57.10
64209;DHT22;50527;52.414;13.226;2024-03-17T12:54:57;10.80;55.00
64209;DHT22;50527;52.414;13.226;2024-03-17T12:57:44;10.50;55.00
64209;DHT22;50527;52.414;13.226;2024-03-17T13:00:28;10.50;55.50
64209;DHT22;50527;52.414;13.226;2024-03-17T13:02:57;10.20;55.50
64209;DHT22;50527;52.414;13.226;2024-03-17T13:05:23;10.10;55.70
64209;DHT22;50527;52.414;13.226;2024-03-17T13:07:49;9.80;56.50
64209;DHT22;50527;52.414;13.226;2024-03-17T13:10:19;9.80;57.80
64209;DHT22;50527;52.414;13.226;2024-03-17T13:12:45;9.70;57.90
64209;DHT22;50527;52.414;13.226;2024-03-17T13:15:15;9.70;58.30
64209;DHT22;50527;52.414;13.226;2024-03-17T13:17:44;10.00;58.20
64209;DHT22;50527;52.414;13.226;2024-03-17T13:20:13;10.10;57.40
64209;DHT22;50527;52.414;13.226;2024-03-17T13:22:40;10.40;57.10
64209;DHT22;50527;52.414;13.226;2024-03-17T13:25:23;10.60;56.20
64209;DHT22;50527;52.414;13.226;2024-03-17T13:27:52;10.60;56.30
64209;DHT22;50527;52.414;13.226;2024-03-17T13:30:19;10.50;56.90
64209;DHT22;50527;52.414;13.226;2024-03-17T13:32:47;10.50;57.30
64209;DHT22;50527;52.414;13.226;2024-03-17T13:35:20;10.40;56.90
64209;DHT22;50527;52.414;13.226;2024-03-17T13:37:47;10.30;57.40
64209;DHT22;50527;52.414;13.226;2024-03-17T13:40:13;10.50;57.50
64209;DHT22;50527;52.414;13.226;2024-03-17T13:42:51;10.50;56.90
64209;DHT22;50527;52.414;13.226;2024-03-17T13:45:17;10.50;57.80
64209;DHT22;50527;52.414;13.226;2024-03-17T13:47:52;10.40;57.90
64209;DHT22;50527;52.414;13.226;2024-03-17T13:50:19;10.40;57.50
64209;DHT22;50527;52.414;13.226;2024-03-17T13:52:44;10.40;57.90
64209;DHT22;50527;52.414;13.226;2024-03-17T13:55:20;10.30;57.40
64209;DHT22;50527;52.414;13.226;2024-03-17T13:57:51;10.40;56.30
64209;DHT22;50527;52.414;13.226;2024-03-17T14:00:17;10.20;56.40
64209;DHT22;50527;52.414;13.226;2024-03-17T14:02:46;10.10;56.60
64209;DHT22;50527;52.414;13.226;2024-03-17T14:05:19;10.10;57.20
64209;DHT22;50527;52.414;13.226;2024-03-17T14:07:45;9.90;56.80
64209;DHT22;50527;52.414;13.226;2024-03-17T14:10:13;9.90;58.20
64209;DHT22;50527;52.414;13.226;2024-03-17T14:12:39;9.90;57.10
64209;DHT22;50527;52.414;13.226;2024-03-17T14:15:05;9.80;58.60
64209;DHT22;50527;52.414;13.226;2024-03-17T14:17:31;9.70;57.20
64209;DHT22;50527;52.414;13.226;2024-03-17T14:19:56;9.70;58.20
64209;DHT22;50527;52.414;13.226;2024-03-17T14:22:22;9.60;57.80
64209;DHT22;50527;52.414;13.226;2024-03-17T14:24:48;9.60;58.60
64209;DHT22;50527;52.414;13.226;2024-03-17T14:27:15;9.60;58.50
64209;DHT22;50527;52.414;13.226;2024-03-17T14:29:41;9.60;59.00
64209;DHT22;50527;52.414;13.226;2024-03-17T14:32:07;9.60;58.80
64209;DHT22;50527;52.414;13.226;2024-03-17T14:34:32;9.50;57.90
64209;DHT22;50527;52.414;13.226;2024-03-17T14:37:01;9.60;59.20
64209;DHT22;50527;52.414;13.226;2024-03-17T14:39:28;9.60;57.30
64209;DHT22;50527;52.414;13.226;2024-03-17T14:41:55;9.80;58.10
64209;DHT22;50527;52.414;13.226;2024-03-17T14:44:20;9.80;58.20
64209;DHT22;50527;52.414;13.226;2024-03-17T14:46:46;9.80;58.70
64209;DHT22;50527;52.414;13.226;2024-03-17T14:49:12;9.80;58.10
64209;DHT22;50527;52.414;13.226;2024-03-17T14:51:37;9.90;57.10
64209;DHT22;50527;52.414;13.226;2024-03-17T14:54:03;10.00;56.10
64209;DHT22;50527;52.414;13.226;2024-03-17T14:56:31;10.00;55.00
64209;DHT22;50527;52.414;13.226;2024-03-17T14:58:56;9.90;55.70
64209;DHT22;50527;52.414;13.226;2024-03-17T15:01:22;9.90;55.20
64209;DHT22;50527;52.414;13.226;2024-03-17T15:03:47;10.00;56.00
64209;DHT22;50527;52.414;13.226;2024-03-17T15:06:13;10.00;57.30
64209;DHT22;50527;52.414;13.226;2024-03-17T15:08:40;9.80;56.40
64209;DHT22;50527;52.414;13.226;2024-03-17T15:11:05;9.80;56.70
64209;DHT22;50527;52.414;13.226;2024-03-17T15:13:33;9.90;57.80
64209;DHT22;50527;52.414;13.226;2024-03-17T15:15:59;9.90;57.60
64209;DHT22;50527;52.414;13.226;2024-03-17T15:18:24;9.90;56.50
64209;DHT22;50527;52.414;13.226;2024-03-17T15:20:53;9.80;55.80
64209;DHT22;50527;52.414;13.226;2024-03-17T15:23:20;9.70;55.70
64209;DHT22;50527;52.414;13.226;2024-03-17T15:25:46;9.60;56.40
64209;DHT22;50527;52.414;13.226;2024-03-17T15:28:11;9.70;57.70
64209;DHT22;50527;52.414;13.226;2024-03-17T15:30:38;9.70;56.40
64209;DHT22;50527;52.414;13.226;2024-03-17T15:33:03;9.70;57.80
64209;DHT22;50527;52.414;13.226;2024-03-17T15:35:29;9.80;58.10
64209;DHT22;50527;52.414;13.226;2024-03-17T15:37:56;9.80;56.30
64209;DHT22;50527;52.414;13.226;2024-03-17T15:40:22;9.70;57.00
64209;DHT22;50527;52.414;13.226;2024-03-17T15:42:49;9.80;58.00
64209;DHT22;50527;52.414;13.226;2024-03-17T15:45:15;9.80;57.20
64209;DHT22;50527;52.414;13.226;2024-03-17T15:47:41;9.80;56.50
64209;DHT22;50527;52.414;13.226;2024-03-17T15:50:08;9.80;56.10
64209;DHT22;50527;52.414;13.226;2024-03-17T15:52:34;9.80;56.80